<?xml version="1.0" encoding="UTF-8" standalone="no" ?>
<gpx xmlns="http://www.topografix.com/GPX/1/1" xmlns:xsi="http://www.w3.org/2001/XMLSchema-instance" xsi:schemaLocation="http://www.topografix.com/GPX/1/1 http://www.topografix.com/GPX/1/1/gpx.xsd" version="1.1" creator="VisuGPX - https://www.visugpx.com">
  <metadata>
    <name>64 - RAQUETTES - Laruns/Fabrèges - Vallée du Brousset</name>
    <desc><![CDATA[Sortie peu de neige mais accessible]]></desc>
  </metadata>
  <trk>
    <name><![CDATA[ACTIVE LOG]]></name>
    <trkseg>
      <trkpt lat="42.86326" lon="-0.39231">
        <ele>1265.232422</ele>
        <time>2014-02-17T09:54:20Z</time>
      </trkpt>
      <trkpt lat="42.86326" lon="-0.39231">
        <ele>1265.232422</ele>
        <time>2014-02-17T09:54:21Z</time>
      </trkpt>
      <trkpt lat="42.86327" lon="-0.39231">
        <ele>1264.270996</ele>
        <time>2014-02-17T09:54:22Z</time>
      </trkpt>
      <trkpt lat="42.86322" lon="-0.39229">
        <ele>1264.751709</ele>
        <time>2014-02-17T09:54:50Z</time>
      </trkpt>
      <trkpt lat="42.8632" lon="-0.39229">
        <ele>1264.751709</ele>
        <time>2014-02-17T09:55:11Z</time>
      </trkpt>
      <trkpt lat="42.86323" lon="-0.39231">
        <ele>1264.751709</ele>
        <time>2014-02-17T09:55:42Z</time>
      </trkpt>
      <trkpt lat="42.86321" lon="-0.39231">
        <ele>1265.232422</ele>
        <time>2014-02-17T09:57:01Z</time>
      </trkpt>
      <trkpt lat="42.8632" lon="-0.3923">
        <ele>1266.193604</ele>
        <time>2014-02-17T09:58:22Z</time>
      </trkpt>
      <trkpt lat="42.86312" lon="-0.39232">
        <ele>1267.155029</ele>
        <time>2014-02-17T09:58:56Z</time>
      </trkpt>
      <trkpt lat="42.86309" lon="-0.39233">
        <ele>1267.635498</ele>
        <time>2014-02-17T09:59:00Z</time>
      </trkpt>
      <trkpt lat="42.8629" lon="-0.39243">
        <ele>1268.116211</ele>
        <time>2014-02-17T09:59:21Z</time>
      </trkpt>
      <trkpt lat="42.86283" lon="-0.39244">
        <ele>1269.077637</ele>
        <time>2014-02-17T09:59:41Z</time>
      </trkpt>
      <trkpt lat="42.86279" lon="-0.39242">
        <ele>1269.55835</ele>
        <time>2014-02-17T09:59:55Z</time>
      </trkpt>
      <trkpt lat="42.86266" lon="-0.39241">
        <ele>1269.55835</ele>
        <time>2014-02-17T10:00:13Z</time>
      </trkpt>
      <trkpt lat="42.86247" lon="-0.39231">
        <ele>1271.480713</ele>
        <time>2014-02-17T10:00:33Z</time>
      </trkpt>
      <trkpt lat="42.86234" lon="-0.39224">
        <ele>1273.403564</ele>
        <time>2014-02-17T10:00:48Z</time>
      </trkpt>
      <trkpt lat="42.86216" lon="-0.39221">
        <ele>1272.922852</ele>
        <time>2014-02-17T10:01:05Z</time>
      </trkpt>
      <trkpt lat="42.86205" lon="-0.39218">
        <ele>1274.364746</ele>
        <time>2014-02-17T10:01:16Z</time>
      </trkpt>
      <trkpt lat="42.86203" lon="-0.39218">
        <ele>1275.325928</ele>
        <time>2014-02-17T10:01:18Z</time>
      </trkpt>
      <trkpt lat="42.86192" lon="-0.39213">
        <ele>1275.806641</ele>
        <time>2014-02-17T10:01:31Z</time>
      </trkpt>
      <trkpt lat="42.8618" lon="-0.39209">
        <ele>1276.768311</ele>
        <time>2014-02-17T10:01:42Z</time>
      </trkpt>
      <trkpt lat="42.86169" lon="-0.39204">
        <ele>1277.249023</ele>
        <time>2014-02-17T10:01:55Z</time>
      </trkpt>
      <trkpt lat="42.86158" lon="-0.39202">
        <ele>1277.729492</ele>
        <time>2014-02-17T10:02:08Z</time>
      </trkpt>
      <trkpt lat="42.86145" lon="-0.39197">
        <ele>1276.768311</ele>
        <time>2014-02-17T10:02:20Z</time>
      </trkpt>
      <trkpt lat="42.86136" lon="-0.39195">
        <ele>1276.768311</ele>
        <time>2014-02-17T10:02:32Z</time>
      </trkpt>
      <trkpt lat="42.86126" lon="-0.39193">
        <ele>1277.729492</ele>
        <time>2014-02-17T10:02:42Z</time>
      </trkpt>
      <trkpt lat="42.86111" lon="-0.39191">
        <ele>1278.210205</ele>
        <time>2014-02-17T10:02:57Z</time>
      </trkpt>
      <trkpt lat="42.86087" lon="-0.39189">
        <ele>1279.6521</ele>
        <time>2014-02-17T10:03:18Z</time>
      </trkpt>
      <trkpt lat="42.86073" lon="-0.39196">
        <ele>1279.171387</ele>
        <time>2014-02-17T10:03:33Z</time>
      </trkpt>
      <trkpt lat="42.86059" lon="-0.39204">
        <ele>1280.132812</ele>
        <time>2014-02-17T10:03:50Z</time>
      </trkpt>
      <trkpt lat="42.86042" lon="-0.39211">
        <ele>1281.094238</ele>
        <time>2014-02-17T10:04:08Z</time>
      </trkpt>
      <trkpt lat="42.86027" lon="-0.39218">
        <ele>1283.016602</ele>
        <time>2014-02-17T10:04:25Z</time>
      </trkpt>
      <trkpt lat="42.86014" lon="-0.3923">
        <ele>1283.978027</ele>
        <time>2014-02-17T10:04:42Z</time>
      </trkpt>
      <trkpt lat="42.86003" lon="-0.39244">
        <ele>1284.45874</ele>
        <time>2014-02-17T10:04:59Z</time>
      </trkpt>
      <trkpt lat="42.85995" lon="-0.39252">
        <ele>1284.939453</ele>
        <time>2014-02-17T10:05:10Z</time>
      </trkpt>
      <trkpt lat="42.85984" lon="-0.3926">
        <ele>1284.45874</ele>
        <time>2014-02-17T10:05:22Z</time>
      </trkpt>
      <trkpt lat="42.8597" lon="-0.39265">
        <ele>1283.978027</ele>
        <time>2014-02-17T10:05:37Z</time>
      </trkpt>
      <trkpt lat="42.85956" lon="-0.3927">
        <ele>1284.45874</ele>
        <time>2014-02-17T10:05:51Z</time>
      </trkpt>
      <trkpt lat="42.85934" lon="-0.39273">
        <ele>1284.939453</ele>
        <time>2014-02-17T10:06:09Z</time>
      </trkpt>
      <trkpt lat="42.85918" lon="-0.39277">
        <ele>1286.381348</ele>
        <time>2014-02-17T10:06:26Z</time>
      </trkpt>
      <trkpt lat="42.85899" lon="-0.39273">
        <ele>1286.861816</ele>
        <time>2014-02-17T10:06:43Z</time>
      </trkpt>
      <trkpt lat="42.85885" lon="-0.39269">
        <ele>1284.939453</ele>
        <time>2014-02-17T10:07:00Z</time>
      </trkpt>
      <trkpt lat="42.85882" lon="-0.39266">
        <ele>1284.45874</ele>
        <time>2014-02-17T10:07:06Z</time>
      </trkpt>
      <trkpt lat="42.85869" lon="-0.39244">
        <ele>1283.497314</ele>
        <time>2014-02-17T10:07:27Z</time>
      </trkpt>
      <trkpt lat="42.85856" lon="-0.39219">
        <ele>1283.978027</ele>
        <time>2014-02-17T10:07:50Z</time>
      </trkpt>
      <trkpt lat="42.85841" lon="-0.39206">
        <ele>1284.939453</ele>
        <time>2014-02-17T10:08:09Z</time>
      </trkpt>
      <trkpt lat="42.85832" lon="-0.392">
        <ele>1287.823242</ele>
        <time>2014-02-17T10:08:21Z</time>
      </trkpt>
      <trkpt lat="42.85814" lon="-0.39193">
        <ele>1287.823242</ele>
        <time>2014-02-17T10:08:39Z</time>
      </trkpt>
      <trkpt lat="42.85794" lon="-0.39187">
        <ele>1291.187744</ele>
        <time>2014-02-17T10:09:00Z</time>
      </trkpt>
      <trkpt lat="42.85774" lon="-0.39186">
        <ele>1290.707031</ele>
        <time>2014-02-17T10:09:20Z</time>
      </trkpt>
      <trkpt lat="42.85757" lon="-0.3919">
        <ele>1293.110596</ele>
        <time>2014-02-17T10:09:37Z</time>
      </trkpt>
      <trkpt lat="42.8575" lon="-0.39192">
        <ele>1294.072021</ele>
        <time>2014-02-17T10:09:44Z</time>
      </trkpt>
      <trkpt lat="42.85731" lon="-0.39179">
        <ele>1294.55249</ele>
        <time>2014-02-17T10:10:05Z</time>
      </trkpt>
      <trkpt lat="42.85715" lon="-0.39177">
        <ele>1295.513916</ele>
        <time>2014-02-17T10:10:22Z</time>
      </trkpt>
      <trkpt lat="42.85696" lon="-0.39181">
        <ele>1295.513916</ele>
        <time>2014-02-17T10:10:42Z</time>
      </trkpt>
      <trkpt lat="42.85674" lon="-0.39178">
        <ele>1296.955811</ele>
        <time>2014-02-17T10:11:04Z</time>
      </trkpt>
      <trkpt lat="42.85666" lon="-0.39175">
        <ele>1297.436523</ele>
        <time>2014-02-17T10:11:12Z</time>
      </trkpt>
      <trkpt lat="42.85645" lon="-0.39163">
        <ele>1295.033203</ele>
        <time>2014-02-17T10:11:34Z</time>
      </trkpt>
      <trkpt lat="42.8563" lon="-0.39147">
        <ele>1294.55249</ele>
        <time>2014-02-17T10:11:53Z</time>
      </trkpt>
      <trkpt lat="42.85621" lon="-0.39138">
        <ele>1295.033203</ele>
        <time>2014-02-17T10:12:08Z</time>
      </trkpt>
      <trkpt lat="42.85606" lon="-0.39127">
        <ele>1294.55249</ele>
        <time>2014-02-17T10:12:25Z</time>
      </trkpt>
      <trkpt lat="42.85588" lon="-0.39116">
        <ele>1295.994629</ele>
        <time>2014-02-17T10:12:44Z</time>
      </trkpt>
      <trkpt lat="42.85585" lon="-0.39112">
        <ele>1296.955811</ele>
        <time>2014-02-17T10:12:48Z</time>
      </trkpt>
      <trkpt lat="42.85575" lon="-0.39087">
        <ele>1298.397705</ele>
        <time>2014-02-17T10:13:08Z</time>
      </trkpt>
      <trkpt lat="42.85567" lon="-0.39065">
        <ele>1295.513916</ele>
        <time>2014-02-17T10:13:28Z</time>
      </trkpt>
      <trkpt lat="42.85552" lon="-0.39059">
        <ele>1295.994629</ele>
        <time>2014-02-17T10:13:45Z</time>
      </trkpt>
      <trkpt lat="42.85534" lon="-0.39057">
        <ele>1296.475342</ele>
        <time>2014-02-17T10:14:05Z</time>
      </trkpt>
      <trkpt lat="42.85529" lon="-0.39057">
        <ele>1296.475342</ele>
        <time>2014-02-17T10:14:10Z</time>
      </trkpt>
      <trkpt lat="42.85519" lon="-0.39056">
        <ele>1296.955811</ele>
        <time>2014-02-17T10:14:20Z</time>
      </trkpt>
      <trkpt lat="42.85507" lon="-0.39065">
        <ele>1298.397705</ele>
        <time>2014-02-17T10:14:34Z</time>
      </trkpt>
      <trkpt lat="42.85497" lon="-0.3908">
        <ele>1300.320557</ele>
        <time>2014-02-17T10:14:51Z</time>
      </trkpt>
      <trkpt lat="42.85485" lon="-0.39081">
        <ele>1301.281738</ele>
        <time>2014-02-17T10:15:05Z</time>
      </trkpt>
      <trkpt lat="42.85465" lon="-0.39076">
        <ele>1300.320557</ele>
        <time>2014-02-17T10:15:22Z</time>
      </trkpt>
      <trkpt lat="42.85453" lon="-0.39085">
        <ele>1301.281738</ele>
        <time>2014-02-17T10:15:39Z</time>
      </trkpt>
      <trkpt lat="42.85443" lon="-0.39084">
        <ele>1301.762451</ele>
        <time>2014-02-17T10:15:54Z</time>
      </trkpt>
      <trkpt lat="42.85435" lon="-0.39079">
        <ele>1302.24292</ele>
        <time>2014-02-17T10:16:08Z</time>
      </trkpt>
      <trkpt lat="42.85421" lon="-0.39074">
        <ele>1303.204346</ele>
        <time>2014-02-17T10:16:25Z</time>
      </trkpt>
      <trkpt lat="42.8541" lon="-0.39078">
        <ele>1304.64624</ele>
        <time>2014-02-17T10:16:39Z</time>
      </trkpt>
      <trkpt lat="42.85403" lon="-0.39082">
        <ele>1305.126953</ele>
        <time>2014-02-17T10:16:47Z</time>
      </trkpt>
      <trkpt lat="42.85387" lon="-0.39096">
        <ele>1305.607666</ele>
        <time>2014-02-17T10:17:07Z</time>
      </trkpt>
      <trkpt lat="42.85373" lon="-0.39108">
        <ele>1307.530273</ele>
        <time>2014-02-17T10:17:25Z</time>
      </trkpt>
      <trkpt lat="42.8537" lon="-0.39109">
        <ele>1307.530273</ele>
        <time>2014-02-17T10:17:29Z</time>
      </trkpt>
      <trkpt lat="42.85366" lon="-0.39104">
        <ele>1306.568848</ele>
        <time>2014-02-17T10:17:35Z</time>
      </trkpt>
      <trkpt lat="42.8536" lon="-0.39094">
        <ele>1305.607666</ele>
        <time>2014-02-17T10:17:49Z</time>
      </trkpt>
      <trkpt lat="42.85355" lon="-0.39093">
        <ele>1305.607666</ele>
        <time>2014-02-17T10:18:01Z</time>
      </trkpt>
      <trkpt lat="42.85353" lon="-0.39091">
        <ele>1305.607666</ele>
        <time>2014-02-17T10:18:04Z</time>
      </trkpt>
      <trkpt lat="42.85351" lon="-0.39089">
        <ele>1305.607666</ele>
        <time>2014-02-17T10:18:07Z</time>
      </trkpt>
      <trkpt lat="42.85344" lon="-0.39083">
        <ele>1305.607666</ele>
        <time>2014-02-17T10:18:20Z</time>
      </trkpt>
      <trkpt lat="42.85338" lon="-0.39083">
        <ele>1306.568848</ele>
        <time>2014-02-17T10:18:27Z</time>
      </trkpt>
      <trkpt lat="42.85331" lon="-0.39083">
        <ele>1309.933594</ele>
        <time>2014-02-17T10:18:35Z</time>
      </trkpt>
      <trkpt lat="42.8532" lon="-0.3908">
        <ele>1309.933594</ele>
        <time>2014-02-17T10:18:51Z</time>
      </trkpt>
      <trkpt lat="42.85317" lon="-0.39081">
        <ele>1311.375732</ele>
        <time>2014-02-17T10:19:07Z</time>
      </trkpt>
      <trkpt lat="42.85315" lon="-0.39082">
        <ele>1311.856445</ele>
        <time>2014-02-17T10:19:14Z</time>
      </trkpt>
      <trkpt lat="42.85313" lon="-0.39083">
        <ele>1312.336914</ele>
        <time>2014-02-17T10:19:24Z</time>
      </trkpt>
      <trkpt lat="42.853" lon="-0.39086">
        <ele>1312.336914</ele>
        <time>2014-02-17T10:19:44Z</time>
      </trkpt>
      <trkpt lat="42.85285" lon="-0.39082">
        <ele>1310.414307</ele>
        <time>2014-02-17T10:20:01Z</time>
      </trkpt>
      <trkpt lat="42.85279" lon="-0.39077">
        <ele>1310.89502</ele>
        <time>2014-02-17T10:20:09Z</time>
      </trkpt>
      <trkpt lat="42.85269" lon="-0.39053">
        <ele>1310.414307</ele>
        <time>2014-02-17T10:20:30Z</time>
      </trkpt>
      <trkpt lat="42.85254" lon="-0.39047">
        <ele>1313.778809</ele>
        <time>2014-02-17T10:20:48Z</time>
      </trkpt>
      <trkpt lat="42.85238" lon="-0.39041">
        <ele>1314.259521</ele>
        <time>2014-02-17T10:21:05Z</time>
      </trkpt>
      <trkpt lat="42.85223" lon="-0.39035">
        <ele>1315.220947</ele>
        <time>2014-02-17T10:21:23Z</time>
      </trkpt>
      <trkpt lat="42.85209" lon="-0.39029">
        <ele>1315.70166</ele>
        <time>2014-02-17T10:21:41Z</time>
      </trkpt>
      <trkpt lat="42.85191" lon="-0.39023">
        <ele>1316.662842</ele>
        <time>2014-02-17T10:22:01Z</time>
      </trkpt>
      <trkpt lat="42.85175" lon="-0.39017">
        <ele>1318.585449</ele>
        <time>2014-02-17T10:22:21Z</time>
      </trkpt>
      <trkpt lat="42.85164" lon="-0.39012">
        <ele>1319.546875</ele>
        <time>2014-02-17T10:22:38Z</time>
      </trkpt>
      <trkpt lat="42.8516" lon="-0.3901">
        <ele>1320.027344</ele>
        <time>2014-02-17T10:22:56Z</time>
      </trkpt>
      <trkpt lat="42.85153" lon="-0.39006">
        <ele>1320.98877</ele>
        <time>2014-02-17T10:23:22Z</time>
      </trkpt>
      <trkpt lat="42.85142" lon="-0.39003">
        <ele>1322.430664</ele>
        <time>2014-02-17T10:23:34Z</time>
      </trkpt>
      <trkpt lat="42.85128" lon="-0.38998">
        <ele>1323.39209</ele>
        <time>2014-02-17T10:23:50Z</time>
      </trkpt>
      <trkpt lat="42.8511" lon="-0.38992">
        <ele>1324.834229</ele>
        <time>2014-02-17T10:24:09Z</time>
      </trkpt>
      <trkpt lat="42.85092" lon="-0.38991">
        <ele>1324.353516</ele>
        <time>2014-02-17T10:24:29Z</time>
      </trkpt>
      <trkpt lat="42.85076" lon="-0.38987">
        <ele>1324.834229</ele>
        <time>2014-02-17T10:24:46Z</time>
      </trkpt>
      <trkpt lat="42.85061" lon="-0.38983">
        <ele>1324.834229</ele>
        <time>2014-02-17T10:25:04Z</time>
      </trkpt>
      <trkpt lat="42.85045" lon="-0.38979">
        <ele>1326.756836</ele>
        <time>2014-02-17T10:25:22Z</time>
      </trkpt>
      <trkpt lat="42.85029" lon="-0.38977">
        <ele>1328.19873</ele>
        <time>2014-02-17T10:25:39Z</time>
      </trkpt>
      <trkpt lat="42.85016" lon="-0.38976">
        <ele>1329.640625</ele>
        <time>2014-02-17T10:25:55Z</time>
      </trkpt>
      <trkpt lat="42.85015" lon="-0.38976">
        <ele>1329.640625</ele>
        <time>2014-02-17T10:25:56Z</time>
      </trkpt>
      <trkpt lat="42.85012" lon="-0.38975">
        <ele>1327.718018</ele>
        <time>2014-02-17T10:25:59Z</time>
      </trkpt>
      <trkpt lat="42.85003" lon="-0.38973">
        <ele>1328.679443</ele>
        <time>2014-02-17T10:26:10Z</time>
      </trkpt>
      <trkpt lat="42.84987" lon="-0.3897">
        <ele>1328.19873</ele>
        <time>2014-02-17T10:26:26Z</time>
      </trkpt>
      <trkpt lat="42.84976" lon="-0.38965">
        <ele>1328.19873</ele>
        <time>2014-02-17T10:26:41Z</time>
      </trkpt>
      <trkpt lat="42.84962" lon="-0.38962">
        <ele>1327.718018</ele>
        <time>2014-02-17T10:26:57Z</time>
      </trkpt>
      <trkpt lat="42.84948" lon="-0.38959">
        <ele>1327.718018</ele>
        <time>2014-02-17T10:27:14Z</time>
      </trkpt>
      <trkpt lat="42.84935" lon="-0.38957">
        <ele>1327.718018</ele>
        <time>2014-02-17T10:27:27Z</time>
      </trkpt>
      <trkpt lat="42.84918" lon="-0.38951">
        <ele>1327.237549</ele>
        <time>2014-02-17T10:27:47Z</time>
      </trkpt>
      <trkpt lat="42.84905" lon="-0.38946">
        <ele>1327.718018</ele>
        <time>2014-02-17T10:28:00Z</time>
      </trkpt>
      <trkpt lat="42.84893" lon="-0.38941">
        <ele>1327.237549</ele>
        <time>2014-02-17T10:28:13Z</time>
      </trkpt>
      <trkpt lat="42.84884" lon="-0.3894">
        <ele>1327.237549</ele>
        <time>2014-02-17T10:28:24Z</time>
      </trkpt>
      <trkpt lat="42.84865" lon="-0.38935">
        <ele>1327.237549</ele>
        <time>2014-02-17T10:28:43Z</time>
      </trkpt>
      <trkpt lat="42.84852" lon="-0.38932">
        <ele>1327.237549</ele>
        <time>2014-02-17T10:28:55Z</time>
      </trkpt>
      <trkpt lat="42.84842" lon="-0.38925">
        <ele>1326.276123</ele>
        <time>2014-02-17T10:29:07Z</time>
      </trkpt>
      <trkpt lat="42.8483" lon="-0.38918">
        <ele>1327.237549</ele>
        <time>2014-02-17T10:29:21Z</time>
      </trkpt>
      <trkpt lat="42.84821" lon="-0.38909">
        <ele>1328.19873</ele>
        <time>2014-02-17T10:29:31Z</time>
      </trkpt>
      <trkpt lat="42.84814" lon="-0.38904">
        <ele>1330.121338</ele>
        <time>2014-02-17T10:29:41Z</time>
      </trkpt>
      <trkpt lat="42.84799" lon="-0.38899">
        <ele>1330.121338</ele>
        <time>2014-02-17T10:29:56Z</time>
      </trkpt>
      <trkpt lat="42.84785" lon="-0.38896">
        <ele>1330.602051</ele>
        <time>2014-02-17T10:30:09Z</time>
      </trkpt>
      <trkpt lat="42.84775" lon="-0.38898">
        <ele>1332.524658</ele>
        <time>2014-02-17T10:30:19Z</time>
      </trkpt>
      <trkpt lat="42.84761" lon="-0.38895">
        <ele>1331.563232</ele>
        <time>2014-02-17T10:30:31Z</time>
      </trkpt>
      <trkpt lat="42.84755" lon="-0.3889">
        <ele>1332.524658</ele>
        <time>2014-02-17T10:30:57Z</time>
      </trkpt>
      <trkpt lat="42.84757" lon="-0.38882">
        <ele>1329.640625</ele>
        <time>2014-02-17T10:31:09Z</time>
      </trkpt>
      <trkpt lat="42.84756" lon="-0.38879">
        <ele>1328.19873</ele>
        <time>2014-02-17T10:31:14Z</time>
      </trkpt>
      <trkpt lat="42.84753" lon="-0.38875">
        <ele>1326.756836</ele>
        <time>2014-02-17T10:31:20Z</time>
      </trkpt>
      <trkpt lat="42.84746" lon="-0.38862">
        <ele>1325.314697</ele>
        <time>2014-02-17T10:31:35Z</time>
      </trkpt>
      <trkpt lat="42.84733" lon="-0.38863">
        <ele>1325.314697</ele>
        <time>2014-02-17T10:32:29Z</time>
      </trkpt>
      <trkpt lat="42.84725" lon="-0.38865">
        <ele>1325.79541</ele>
        <time>2014-02-17T10:32:39Z</time>
      </trkpt>
      <trkpt lat="42.84716" lon="-0.38865">
        <ele>1327.237549</ele>
        <time>2014-02-17T10:32:49Z</time>
      </trkpt>
      <trkpt lat="42.84711" lon="-0.38867">
        <ele>1327.718018</ele>
        <time>2014-02-17T10:32:55Z</time>
      </trkpt>
      <trkpt lat="42.84701" lon="-0.38866">
        <ele>1327.237549</ele>
        <time>2014-02-17T10:33:05Z</time>
      </trkpt>
      <trkpt lat="42.8469" lon="-0.38862">
        <ele>1327.237549</ele>
        <time>2014-02-17T10:33:16Z</time>
      </trkpt>
      <trkpt lat="42.84682" lon="-0.38858">
        <ele>1328.19873</ele>
        <time>2014-02-17T10:33:24Z</time>
      </trkpt>
      <trkpt lat="42.84677" lon="-0.38861">
        <ele>1329.159912</ele>
        <time>2014-02-17T10:33:32Z</time>
      </trkpt>
      <trkpt lat="42.84668" lon="-0.38865">
        <ele>1330.602051</ele>
        <time>2014-02-17T10:33:43Z</time>
      </trkpt>
      <trkpt lat="42.84657" lon="-0.38861">
        <ele>1332.043945</ele>
        <time>2014-02-17T10:33:59Z</time>
      </trkpt>
      <trkpt lat="42.84649" lon="-0.38861">
        <ele>1332.524658</ele>
        <time>2014-02-17T10:34:08Z</time>
      </trkpt>
      <trkpt lat="42.84636" lon="-0.38862">
        <ele>1332.524658</ele>
        <time>2014-02-17T10:34:21Z</time>
      </trkpt>
      <trkpt lat="42.84624" lon="-0.38862">
        <ele>1332.043945</ele>
        <time>2014-02-17T10:34:35Z</time>
      </trkpt>
      <trkpt lat="42.84616" lon="-0.38862">
        <ele>1332.524658</ele>
        <time>2014-02-17T10:34:44Z</time>
      </trkpt>
      <trkpt lat="42.84606" lon="-0.38862">
        <ele>1332.043945</ele>
        <time>2014-02-17T10:34:54Z</time>
      </trkpt>
      <trkpt lat="42.84592" lon="-0.38859">
        <ele>1332.524658</ele>
        <time>2014-02-17T10:35:09Z</time>
      </trkpt>
      <trkpt lat="42.84582" lon="-0.38855">
        <ele>1333.48584</ele>
        <time>2014-02-17T10:35:20Z</time>
      </trkpt>
      <trkpt lat="42.84573" lon="-0.38853">
        <ele>1333.48584</ele>
        <time>2014-02-17T10:35:29Z</time>
      </trkpt>
      <trkpt lat="42.84566" lon="-0.38851">
        <ele>1333.48584</ele>
        <time>2014-02-17T10:35:37Z</time>
      </trkpt>
      <trkpt lat="42.84555" lon="-0.38847">
        <ele>1333.966553</ele>
        <time>2014-02-17T10:35:47Z</time>
      </trkpt>
      <trkpt lat="42.84543" lon="-0.38845">
        <ele>1333.005127</ele>
        <time>2014-02-17T10:35:59Z</time>
      </trkpt>
      <trkpt lat="42.84534" lon="-0.38843">
        <ele>1333.005127</ele>
        <time>2014-02-17T10:36:10Z</time>
      </trkpt>
      <trkpt lat="42.84522" lon="-0.38839">
        <ele>1333.005127</ele>
        <time>2014-02-17T10:36:21Z</time>
      </trkpt>
      <trkpt lat="42.84512" lon="-0.38836">
        <ele>1333.005127</ele>
        <time>2014-02-17T10:36:32Z</time>
      </trkpt>
      <trkpt lat="42.84497" lon="-0.38834">
        <ele>1333.005127</ele>
        <time>2014-02-17T10:36:51Z</time>
      </trkpt>
      <trkpt lat="42.84487" lon="-0.38833">
        <ele>1333.966553</ele>
        <time>2014-02-17T10:37:03Z</time>
      </trkpt>
      <trkpt lat="42.84474" lon="-0.3883">
        <ele>1335.408447</ele>
        <time>2014-02-17T10:37:18Z</time>
      </trkpt>
      <trkpt lat="42.84461" lon="-0.3883">
        <ele>1335.408447</ele>
        <time>2014-02-17T10:37:33Z</time>
      </trkpt>
      <trkpt lat="42.84441" lon="-0.38827">
        <ele>1335.408447</ele>
        <time>2014-02-17T10:38:03Z</time>
      </trkpt>
      <trkpt lat="42.8443" lon="-0.38824">
        <ele>1334.927979</ele>
        <time>2014-02-17T10:38:17Z</time>
      </trkpt>
      <trkpt lat="42.84417" lon="-0.38825">
        <ele>1335.88916</ele>
        <time>2014-02-17T10:38:32Z</time>
      </trkpt>
      <trkpt lat="42.8441" lon="-0.38828">
        <ele>1337.331055</ele>
        <time>2014-02-17T10:38:41Z</time>
      </trkpt>
      <trkpt lat="42.84402" lon="-0.38829">
        <ele>1337.811768</ele>
        <time>2014-02-17T10:38:52Z</time>
      </trkpt>
      <trkpt lat="42.84391" lon="-0.38829">
        <ele>1336.850342</ele>
        <time>2014-02-17T10:39:06Z</time>
      </trkpt>
      <trkpt lat="42.84381" lon="-0.38827">
        <ele>1336.850342</ele>
        <time>2014-02-17T10:39:22Z</time>
      </trkpt>
      <trkpt lat="42.84375" lon="-0.38831">
        <ele>1338.773193</ele>
        <time>2014-02-17T10:39:35Z</time>
      </trkpt>
      <trkpt lat="42.84368" lon="-0.38836">
        <ele>1340.215332</ele>
        <time>2014-02-17T10:39:47Z</time>
      </trkpt>
      <trkpt lat="42.84361" lon="-0.3884">
        <ele>1342.618652</ele>
        <time>2014-02-17T10:40:00Z</time>
      </trkpt>
      <trkpt lat="42.84348" lon="-0.38839">
        <ele>1346.463867</ele>
        <time>2014-02-17T10:40:19Z</time>
      </trkpt>
      <trkpt lat="42.84337" lon="-0.3884">
        <ele>1349.347656</ele>
        <time>2014-02-17T10:40:36Z</time>
      </trkpt>
      <trkpt lat="42.84326" lon="-0.38828">
        <ele>1349.347656</ele>
        <time>2014-02-17T10:40:53Z</time>
      </trkpt>
      <trkpt lat="42.84316" lon="-0.38821">
        <ele>1346.463867</ele>
        <time>2014-02-17T10:41:08Z</time>
      </trkpt>
      <trkpt lat="42.84301" lon="-0.38814">
        <ele>1345.983154</ele>
        <time>2014-02-17T10:41:28Z</time>
      </trkpt>
      <trkpt lat="42.84293" lon="-0.38799">
        <ele>1342.618652</ele>
        <time>2014-02-17T10:41:55Z</time>
      </trkpt>
      <trkpt lat="42.8429" lon="-0.38791">
        <ele>1342.618652</ele>
        <time>2014-02-17T10:42:05Z</time>
      </trkpt>
      <trkpt lat="42.84282" lon="-0.38779">
        <ele>1340.695801</ele>
        <time>2014-02-17T10:42:21Z</time>
      </trkpt>
      <trkpt lat="42.84275" lon="-0.38772">
        <ele>1339.253662</ele>
        <time>2014-02-17T10:42:30Z</time>
      </trkpt>
      <trkpt lat="42.84256" lon="-0.38761">
        <ele>1338.29248</ele>
        <time>2014-02-17T10:42:52Z</time>
      </trkpt>
      <trkpt lat="42.84239" lon="-0.38754">
        <ele>1338.29248</ele>
        <time>2014-02-17T10:43:11Z</time>
      </trkpt>
      <trkpt lat="42.84222" lon="-0.38747">
        <ele>1338.773193</ele>
        <time>2014-02-17T10:43:30Z</time>
      </trkpt>
      <trkpt lat="42.84205" lon="-0.38741">
        <ele>1339.734375</ele>
        <time>2014-02-17T10:43:49Z</time>
      </trkpt>
      <trkpt lat="42.84189" lon="-0.38737">
        <ele>1340.215332</ele>
        <time>2014-02-17T10:44:07Z</time>
      </trkpt>
      <trkpt lat="42.84179" lon="-0.38736">
        <ele>1340.215332</ele>
        <time>2014-02-17T10:44:18Z</time>
      </trkpt>
      <trkpt lat="42.84177" lon="-0.38735">
        <ele>1338.773193</ele>
        <time>2014-02-17T10:44:20Z</time>
      </trkpt>
      <trkpt lat="42.84164" lon="-0.38733">
        <ele>1341.176514</ele>
        <time>2014-02-17T10:44:36Z</time>
      </trkpt>
      <trkpt lat="42.84153" lon="-0.38727">
        <ele>1340.695801</ele>
        <time>2014-02-17T10:44:49Z</time>
      </trkpt>
      <trkpt lat="42.84143" lon="-0.3872">
        <ele>1341.657227</ele>
        <time>2014-02-17T10:45:02Z</time>
      </trkpt>
      <trkpt lat="42.84128" lon="-0.38708">
        <ele>1341.176514</ele>
        <time>2014-02-17T10:45:21Z</time>
      </trkpt>
      <trkpt lat="42.84112" lon="-0.38694">
        <ele>1340.695801</ele>
        <time>2014-02-17T10:45:40Z</time>
      </trkpt>
      <trkpt lat="42.84107" lon="-0.38689">
        <ele>1341.657227</ele>
        <time>2014-02-17T10:45:46Z</time>
      </trkpt>
      <trkpt lat="42.84091" lon="-0.38672">
        <ele>1340.695801</ele>
        <time>2014-02-17T10:46:06Z</time>
      </trkpt>
      <trkpt lat="42.84075" lon="-0.38658">
        <ele>1341.657227</ele>
        <time>2014-02-17T10:46:25Z</time>
      </trkpt>
      <trkpt lat="42.84066" lon="-0.38653">
        <ele>1343.579834</ele>
        <time>2014-02-17T10:46:35Z</time>
      </trkpt>
      <trkpt lat="42.84045" lon="-0.38656">
        <ele>1345.021729</ele>
        <time>2014-02-17T10:46:57Z</time>
      </trkpt>
      <trkpt lat="42.84031" lon="-0.38661">
        <ele>1346.944336</ele>
        <time>2014-02-17T10:47:14Z</time>
      </trkpt>
      <trkpt lat="42.8402" lon="-0.38652">
        <ele>1347.905762</ele>
        <time>2014-02-17T10:47:28Z</time>
      </trkpt>
      <trkpt lat="42.84002" lon="-0.38644">
        <ele>1349.347656</ele>
        <time>2014-02-17T10:47:48Z</time>
      </trkpt>
      <trkpt lat="42.83983" lon="-0.38638">
        <ele>1352.231445</ele>
        <time>2014-02-17T10:48:09Z</time>
      </trkpt>
      <trkpt lat="42.83971" lon="-0.38635">
        <ele>1354.634766</ele>
        <time>2014-02-17T10:48:22Z</time>
      </trkpt>
      <trkpt lat="42.83954" lon="-0.38627">
        <ele>1353.673584</ele>
        <time>2014-02-17T10:48:41Z</time>
      </trkpt>
      <trkpt lat="42.83951" lon="-0.38627">
        <ele>1351.750977</ele>
        <time>2014-02-17T10:48:44Z</time>
      </trkpt>
      <trkpt lat="42.83949" lon="-0.38627">
        <ele>1353.673584</ele>
        <time>2014-02-17T10:48:46Z</time>
      </trkpt>
      <trkpt lat="42.83938" lon="-0.3863">
        <ele>1354.634766</ele>
        <time>2014-02-17T10:48:57Z</time>
      </trkpt>
      <trkpt lat="42.8392" lon="-0.38634">
        <ele>1354.634766</ele>
        <time>2014-02-17T10:49:15Z</time>
      </trkpt>
      <trkpt lat="42.83919" lon="-0.38634">
        <ele>1355.115479</ele>
        <time>2014-02-17T10:49:16Z</time>
      </trkpt>
      <trkpt lat="42.83905" lon="-0.38637">
        <ele>1357.03833</ele>
        <time>2014-02-17T10:49:31Z</time>
      </trkpt>
      <trkpt lat="42.83902" lon="-0.38638">
        <ele>1355.596191</ele>
        <time>2014-02-17T10:49:34Z</time>
      </trkpt>
      <trkpt lat="42.83891" lon="-0.3864">
        <ele>1354.634766</ele>
        <time>2014-02-17T10:49:45Z</time>
      </trkpt>
      <trkpt lat="42.83883" lon="-0.38641">
        <ele>1355.115479</ele>
        <time>2014-02-17T10:49:53Z</time>
      </trkpt>
      <trkpt lat="42.83866" lon="-0.38642">
        <ele>1354.154297</ele>
        <time>2014-02-17T10:50:11Z</time>
      </trkpt>
      <trkpt lat="42.83855" lon="-0.38643">
        <ele>1356.557617</ele>
        <time>2014-02-17T10:50:23Z</time>
      </trkpt>
      <trkpt lat="42.8385" lon="-0.38643">
        <ele>1354.154297</ele>
        <time>2014-02-17T10:50:28Z</time>
      </trkpt>
      <trkpt lat="42.83842" lon="-0.38643">
        <ele>1357.519043</ele>
        <time>2014-02-17T10:50:37Z</time>
      </trkpt>
      <trkpt lat="42.83839" lon="-0.38643">
        <ele>1359.44165</ele>
        <time>2014-02-17T10:50:41Z</time>
      </trkpt>
      <trkpt lat="42.83835" lon="-0.38644">
        <ele>1357.999756</ele>
        <time>2014-02-17T10:50:45Z</time>
      </trkpt>
      <trkpt lat="42.83819" lon="-0.38646">
        <ele>1357.519043</ele>
        <time>2014-02-17T10:51:03Z</time>
      </trkpt>
      <trkpt lat="42.83815" lon="-0.38648">
        <ele>1356.076904</ele>
        <time>2014-02-17T10:51:08Z</time>
      </trkpt>
      <trkpt lat="42.83812" lon="-0.3865">
        <ele>1357.999756</ele>
        <time>2014-02-17T10:51:12Z</time>
      </trkpt>
      <trkpt lat="42.83805" lon="-0.38653">
        <ele>1355.596191</ele>
        <time>2014-02-17T10:51:20Z</time>
      </trkpt>
      <trkpt lat="42.83802" lon="-0.38654">
        <ele>1358.480225</ele>
        <time>2014-02-17T10:51:24Z</time>
      </trkpt>
      <trkpt lat="42.83801" lon="-0.38654">
        <ele>1358.960938</ele>
        <time>2014-02-17T10:51:25Z</time>
      </trkpt>
      <trkpt lat="42.83784" lon="-0.38654">
        <ele>1359.44165</ele>
        <time>2014-02-17T10:51:42Z</time>
      </trkpt>
      <trkpt lat="42.83781" lon="-0.38654">
        <ele>1357.03833</ele>
        <time>2014-02-17T10:52:05Z</time>
      </trkpt>
      <trkpt lat="42.83776" lon="-0.38655">
        <ele>1358.960938</ele>
        <time>2014-02-17T10:52:37Z</time>
      </trkpt>
      <trkpt lat="42.83774" lon="-0.38665">
        <ele>1359.44165</ele>
        <time>2014-02-17T10:52:54Z</time>
      </trkpt>
      <trkpt lat="42.83778" lon="-0.38684">
        <ele>1360.883545</ele>
        <time>2014-02-17T10:53:11Z</time>
      </trkpt>
      <trkpt lat="42.83784" lon="-0.38698">
        <ele>1363.286865</ele>
        <time>2014-02-17T10:53:28Z</time>
      </trkpt>
      <trkpt lat="42.83787" lon="-0.38705">
        <ele>1364.248047</ele>
        <time>2014-02-17T10:53:41Z</time>
      </trkpt>
      <trkpt lat="42.83789" lon="-0.3871">
        <ele>1364.248047</ele>
        <time>2014-02-17T10:54:10Z</time>
      </trkpt>
      <trkpt lat="42.83795" lon="-0.38722">
        <ele>1367.13208</ele>
        <time>2014-02-17T10:54:26Z</time>
      </trkpt>
      <trkpt lat="42.83788" lon="-0.38726">
        <ele>1369.054688</ele>
        <time>2014-02-17T10:54:40Z</time>
      </trkpt>
      <trkpt lat="42.83783" lon="-0.38731">
        <ele>1372.419434</ele>
        <time>2014-02-17T10:54:55Z</time>
      </trkpt>
      <trkpt lat="42.83776" lon="-0.38738">
        <ele>1373.380859</ele>
        <time>2014-02-17T10:55:12Z</time>
      </trkpt>
      <trkpt lat="42.83771" lon="-0.38743">
        <ele>1375.783936</ele>
        <time>2014-02-17T10:55:24Z</time>
      </trkpt>
      <trkpt lat="42.83768" lon="-0.38746">
        <ele>1378.187256</ele>
        <time>2014-02-17T10:55:31Z</time>
      </trkpt>
      <trkpt lat="42.8376" lon="-0.38758">
        <ele>1381.551758</ele>
        <time>2014-02-17T10:55:50Z</time>
      </trkpt>
      <trkpt lat="42.83764" lon="-0.38768">
        <ele>1383.955078</ele>
        <time>2014-02-17T10:56:05Z</time>
      </trkpt>
      <trkpt lat="42.83765" lon="-0.38771">
        <ele>1384.435791</ele>
        <time>2014-02-17T10:56:22Z</time>
      </trkpt>
      <trkpt lat="42.83759" lon="-0.38777">
        <ele>1386.358398</ele>
        <time>2014-02-17T10:56:37Z</time>
      </trkpt>
      <trkpt lat="42.83754" lon="-0.38783">
        <ele>1389.723145</ele>
        <time>2014-02-17T10:56:50Z</time>
      </trkpt>
      <trkpt lat="42.83753" lon="-0.38788">
        <ele>1392.126465</ele>
        <time>2014-02-17T10:57:05Z</time>
      </trkpt>
      <trkpt lat="42.83755" lon="-0.38795">
        <ele>1393.568359</ele>
        <time>2014-02-17T10:57:19Z</time>
      </trkpt>
      <trkpt lat="42.83763" lon="-0.38799">
        <ele>1394.529541</ele>
        <time>2014-02-17T10:57:31Z</time>
      </trkpt>
      <trkpt lat="42.83768" lon="-0.38805">
        <ele>1398.374756</ele>
        <time>2014-02-17T10:57:41Z</time>
      </trkpt>
      <trkpt lat="42.83769" lon="-0.38806">
        <ele>1395.010254</ele>
        <time>2014-02-17T10:57:43Z</time>
      </trkpt>
      <trkpt lat="42.8377" lon="-0.38807">
        <ele>1395.97168</ele>
        <time>2014-02-17T10:57:44Z</time>
      </trkpt>
      <trkpt lat="42.83773" lon="-0.38812">
        <ele>1395.490967</ele>
        <time>2014-02-17T10:57:52Z</time>
      </trkpt>
      <trkpt lat="42.83773" lon="-0.38812">
        <ele>1399.816895</ele>
        <time>2014-02-17T10:57:55Z</time>
      </trkpt>
      <trkpt lat="42.83773" lon="-0.38812">
        <ele>1399.816895</ele>
        <time>2014-02-17T10:57:56Z</time>
      </trkpt>
      <trkpt lat="42.83773" lon="-0.38812">
        <ele>1397.894287</ele>
        <time>2014-02-17T10:57:58Z</time>
      </trkpt>
      <trkpt lat="42.83773" lon="-0.38812">
        <ele>1399.336182</ele>
        <time>2014-02-17T10:58:00Z</time>
      </trkpt>
      <trkpt lat="42.83773" lon="-0.38812">
        <ele>1395.97168</ele>
        <time>2014-02-17T10:58:03Z</time>
      </trkpt>
      <trkpt lat="42.83773" lon="-0.38813">
        <ele>1397.413574</ele>
        <time>2014-02-17T10:58:21Z</time>
      </trkpt>
      <trkpt lat="42.83776" lon="-0.38804">
        <ele>1395.97168</ele>
        <time>2014-02-17T10:58:50Z</time>
      </trkpt>
      <trkpt lat="42.83777" lon="-0.38803">
        <ele>1396.932861</ele>
        <time>2014-02-17T10:59:43Z</time>
      </trkpt>
      <trkpt lat="42.83781" lon="-0.38798">
        <ele>1395.97168</ele>
        <time>2014-02-17T10:59:58Z</time>
      </trkpt>
      <trkpt lat="42.83783" lon="-0.38796">
        <ele>1394.529541</ele>
        <time>2014-02-17T11:00:02Z</time>
      </trkpt>
      <trkpt lat="42.83785" lon="-0.3879">
        <ele>1391.165039</ele>
        <time>2014-02-17T11:00:13Z</time>
      </trkpt>
      <trkpt lat="42.83786" lon="-0.38783">
        <ele>1388.28125</ele>
        <time>2014-02-17T11:00:25Z</time>
      </trkpt>
      <trkpt lat="42.83779" lon="-0.38776">
        <ele>1386.838867</ele>
        <time>2014-02-17T11:00:42Z</time>
      </trkpt>
      <trkpt lat="42.83778" lon="-0.38774">
        <ele>1386.358398</ele>
        <time>2014-02-17T11:00:44Z</time>
      </trkpt>
      <trkpt lat="42.83772" lon="-0.38768">
        <ele>1384.916504</ele>
        <time>2014-02-17T11:01:04Z</time>
      </trkpt>
      <trkpt lat="42.83767" lon="-0.38757">
        <ele>1381.551758</ele>
        <time>2014-02-17T11:01:42Z</time>
      </trkpt>
      <trkpt lat="42.83771" lon="-0.38747">
        <ele>1378.667969</ele>
        <time>2014-02-17T11:01:57Z</time>
      </trkpt>
      <trkpt lat="42.83775" lon="-0.38742">
        <ele>1374.822754</ele>
        <time>2014-02-17T11:02:05Z</time>
      </trkpt>
      <trkpt lat="42.83775" lon="-0.38742">
        <ele>1374.822754</ele>
        <time>2014-02-17T11:02:06Z</time>
      </trkpt>
      <trkpt lat="42.83777" lon="-0.38733">
        <ele>1375.783936</ele>
        <time>2014-02-17T11:02:22Z</time>
      </trkpt>
      <trkpt lat="42.83779" lon="-0.38731">
        <ele>1372.419434</ele>
        <time>2014-02-17T11:02:26Z</time>
      </trkpt>
      <trkpt lat="42.83779" lon="-0.38731">
        <ele>1372.419434</ele>
        <time>2014-02-17T11:02:27Z</time>
      </trkpt>
      <trkpt lat="42.83788" lon="-0.38726">
        <ele>1369.5354</ele>
        <time>2014-02-17T11:02:41Z</time>
      </trkpt>
      <trkpt lat="42.83793" lon="-0.38724">
        <ele>1367.612549</ele>
        <time>2014-02-17T11:02:47Z</time>
      </trkpt>
      <trkpt lat="42.8381" lon="-0.38716">
        <ele>1367.612549</ele>
        <time>2014-02-17T11:03:07Z</time>
      </trkpt>
      <trkpt lat="42.8381" lon="-0.38714">
        <ele>1365.690186</ele>
        <time>2014-02-17T11:03:10Z</time>
      </trkpt>
      <trkpt lat="42.83821" lon="-0.38713">
        <ele>1364.248047</ele>
        <time>2014-02-17T11:03:23Z</time>
      </trkpt>
      <trkpt lat="42.83838" lon="-0.38706">
        <ele>1362.325439</ele>
        <time>2014-02-17T11:03:42Z</time>
      </trkpt>
      <trkpt lat="42.83853" lon="-0.38695">
        <ele>1359.922119</ele>
        <time>2014-02-17T11:04:03Z</time>
      </trkpt>
      <trkpt lat="42.83853" lon="-0.38694">
        <ele>1359.44165</ele>
        <time>2014-02-17T11:04:04Z</time>
      </trkpt>
      <trkpt lat="42.83862" lon="-0.38683">
        <ele>1357.519043</ele>
        <time>2014-02-17T11:04:16Z</time>
      </trkpt>
      <trkpt lat="42.83865" lon="-0.38679">
        <ele>1357.03833</ele>
        <time>2014-02-17T11:04:20Z</time>
      </trkpt>
      <trkpt lat="42.83874" lon="-0.38678">
        <ele>1357.519043</ele>
        <time>2014-02-17T11:04:30Z</time>
      </trkpt>
      <trkpt lat="42.8388" lon="-0.38678">
        <ele>1357.519043</ele>
        <time>2014-02-17T11:04:36Z</time>
      </trkpt>
      <trkpt lat="42.83896" lon="-0.38669">
        <ele>1355.115479</ele>
        <time>2014-02-17T11:04:54Z</time>
      </trkpt>
      <trkpt lat="42.83914" lon="-0.3866">
        <ele>1355.115479</ele>
        <time>2014-02-17T11:05:13Z</time>
      </trkpt>
      <trkpt lat="42.83929" lon="-0.3865">
        <ele>1355.115479</ele>
        <time>2014-02-17T11:05:29Z</time>
      </trkpt>
      <trkpt lat="42.83936" lon="-0.38646">
        <ele>1354.634766</ele>
        <time>2014-02-17T11:05:38Z</time>
      </trkpt>
      <trkpt lat="42.83949" lon="-0.38634">
        <ele>1352.231445</ele>
        <time>2014-02-17T11:05:53Z</time>
      </trkpt>
      <trkpt lat="42.8395" lon="-0.38632">
        <ele>1352.712158</ele>
        <time>2014-02-17T11:05:55Z</time>
      </trkpt>
      <trkpt lat="42.83953" lon="-0.38629">
        <ele>1352.231445</ele>
        <time>2014-02-17T11:05:59Z</time>
      </trkpt>
      <trkpt lat="42.83976" lon="-0.38637">
        <ele>1352.231445</ele>
        <time>2014-02-17T11:06:21Z</time>
      </trkpt>
      <trkpt lat="42.83983" lon="-0.38641">
        <ele>1352.231445</ele>
        <time>2014-02-17T11:06:43Z</time>
      </trkpt>
      <trkpt lat="42.83985" lon="-0.38641">
        <ele>1351.270264</ele>
        <time>2014-02-17T11:06:45Z</time>
      </trkpt>
      <trkpt lat="42.84007" lon="-0.38647">
        <ele>1349.347656</ele>
        <time>2014-02-17T11:07:06Z</time>
      </trkpt>
      <trkpt lat="42.84025" lon="-0.38659">
        <ele>1347.425049</ele>
        <time>2014-02-17T11:07:25Z</time>
      </trkpt>
      <trkpt lat="42.84043" lon="-0.3866">
        <ele>1347.905762</ele>
        <time>2014-02-17T11:07:44Z</time>
      </trkpt>
      <trkpt lat="42.84045" lon="-0.38659">
        <ele>1346.944336</ele>
        <time>2014-02-17T11:07:46Z</time>
      </trkpt>
      <trkpt lat="42.84065" lon="-0.38657">
        <ele>1345.983154</ele>
        <time>2014-02-17T11:08:06Z</time>
      </trkpt>
      <trkpt lat="42.84078" lon="-0.38668">
        <ele>1344.060547</ele>
        <time>2014-02-17T11:08:21Z</time>
      </trkpt>
      <trkpt lat="42.84096" lon="-0.38685">
        <ele>1343.099121</ele>
        <time>2014-02-17T11:08:42Z</time>
      </trkpt>
      <trkpt lat="42.84117" lon="-0.38701">
        <ele>1342.618652</ele>
        <time>2014-02-17T11:09:04Z</time>
      </trkpt>
      <trkpt lat="42.84136" lon="-0.38714">
        <ele>1343.579834</ele>
        <time>2014-02-17T11:09:24Z</time>
      </trkpt>
      <trkpt lat="42.84156" lon="-0.38728">
        <ele>1341.657227</ele>
        <time>2014-02-17T11:09:45Z</time>
      </trkpt>
      <trkpt lat="42.84176" lon="-0.38733">
        <ele>1340.215332</ele>
        <time>2014-02-17T11:10:04Z</time>
      </trkpt>
      <trkpt lat="42.84195" lon="-0.38736">
        <ele>1340.215332</ele>
        <time>2014-02-17T11:10:22Z</time>
      </trkpt>
      <trkpt lat="42.84215" lon="-0.38745">
        <ele>1339.734375</ele>
        <time>2014-02-17T11:10:41Z</time>
      </trkpt>
      <trkpt lat="42.84235" lon="-0.38753">
        <ele>1341.176514</ele>
        <time>2014-02-17T11:11:01Z</time>
      </trkpt>
      <trkpt lat="42.84254" lon="-0.38762">
        <ele>1340.695801</ele>
        <time>2014-02-17T11:11:20Z</time>
      </trkpt>
      <trkpt lat="42.84263" lon="-0.38775">
        <ele>1341.657227</ele>
        <time>2014-02-17T11:11:36Z</time>
      </trkpt>
      <trkpt lat="42.84272" lon="-0.38793">
        <ele>1344.541016</ele>
        <time>2014-02-17T11:11:55Z</time>
      </trkpt>
      <trkpt lat="42.84285" lon="-0.38806">
        <ele>1345.983154</ele>
        <time>2014-02-17T11:12:13Z</time>
      </trkpt>
      <trkpt lat="42.84299" lon="-0.38817">
        <ele>1346.944336</ele>
        <time>2014-02-17T11:12:34Z</time>
      </trkpt>
      <trkpt lat="42.84309" lon="-0.38823">
        <ele>1349.347656</ele>
        <time>2014-02-17T11:12:49Z</time>
      </trkpt>
      <trkpt lat="42.84318" lon="-0.38825">
        <ele>1349.347656</ele>
        <time>2014-02-17T11:13:04Z</time>
      </trkpt>
      <trkpt lat="42.84324" lon="-0.38832">
        <ele>1351.270264</ele>
        <time>2014-02-17T11:13:17Z</time>
      </trkpt>
      <trkpt lat="42.84333" lon="-0.3884">
        <ele>1352.231445</ele>
        <time>2014-02-17T11:13:30Z</time>
      </trkpt>
      <trkpt lat="42.84343" lon="-0.38848">
        <ele>1351.750977</ele>
        <time>2014-02-17T11:13:47Z</time>
      </trkpt>
      <trkpt lat="42.84348" lon="-0.38849">
        <ele>1349.828369</ele>
        <time>2014-02-17T11:14:04Z</time>
      </trkpt>
      <trkpt lat="42.84348" lon="-0.38849">
        <ele>1351.270264</ele>
        <time>2014-02-17T11:14:19Z</time>
      </trkpt>
      <trkpt lat="42.84355" lon="-0.38849">
        <ele>1350.309082</ele>
        <time>2014-02-17T11:14:43Z</time>
      </trkpt>
      <trkpt lat="42.84356" lon="-0.38849">
        <ele>1349.347656</ele>
        <time>2014-02-17T11:14:45Z</time>
      </trkpt>
      <trkpt lat="42.84371" lon="-0.38847">
        <ele>1346.463867</ele>
        <time>2014-02-17T11:15:03Z</time>
      </trkpt>
      <trkpt lat="42.84385" lon="-0.38845">
        <ele>1343.579834</ele>
        <time>2014-02-17T11:15:22Z</time>
      </trkpt>
      <trkpt lat="42.84394" lon="-0.38838">
        <ele>1342.137939</ele>
        <time>2014-02-17T11:15:38Z</time>
      </trkpt>
      <trkpt lat="42.84401" lon="-0.38834">
        <ele>1342.618652</ele>
        <time>2014-02-17T11:15:53Z</time>
      </trkpt>
      <trkpt lat="42.84417" lon="-0.38831">
        <ele>1341.657227</ele>
        <time>2014-02-17T11:16:13Z</time>
      </trkpt>
      <trkpt lat="42.8443" lon="-0.38831">
        <ele>1340.215332</ele>
        <time>2014-02-17T11:16:29Z</time>
      </trkpt>
      <trkpt lat="42.84446" lon="-0.38832">
        <ele>1338.29248</ele>
        <time>2014-02-17T11:16:50Z</time>
      </trkpt>
      <trkpt lat="42.84463" lon="-0.38829">
        <ele>1336.850342</ele>
        <time>2014-02-17T11:17:08Z</time>
      </trkpt>
      <trkpt lat="42.84477" lon="-0.3883">
        <ele>1336.369873</ele>
        <time>2014-02-17T11:17:24Z</time>
      </trkpt>
      <trkpt lat="42.84491" lon="-0.38832">
        <ele>1335.88916</ele>
        <time>2014-02-17T11:17:40Z</time>
      </trkpt>
      <trkpt lat="42.84509" lon="-0.38834">
        <ele>1334.447266</ele>
        <time>2014-02-17T11:17:59Z</time>
      </trkpt>
      <trkpt lat="42.84528" lon="-0.38838">
        <ele>1334.447266</ele>
        <time>2014-02-17T11:18:20Z</time>
      </trkpt>
      <trkpt lat="42.84548" lon="-0.38844">
        <ele>1335.408447</ele>
        <time>2014-02-17T11:18:41Z</time>
      </trkpt>
      <trkpt lat="42.84551" lon="-0.38845">
        <ele>1334.927979</ele>
        <time>2014-02-17T11:18:44Z</time>
      </trkpt>
      <trkpt lat="42.84562" lon="-0.38849">
        <ele>1334.927979</ele>
        <time>2014-02-17T11:18:59Z</time>
      </trkpt>
      <trkpt lat="42.84578" lon="-0.38854">
        <ele>1335.408447</ele>
        <time>2014-02-17T11:19:19Z</time>
      </trkpt>
      <trkpt lat="42.84591" lon="-0.38859">
        <ele>1334.447266</ele>
        <time>2014-02-17T11:19:35Z</time>
      </trkpt>
      <trkpt lat="42.84609" lon="-0.38864">
        <ele>1333.966553</ele>
        <time>2014-02-17T11:19:54Z</time>
      </trkpt>
      <trkpt lat="42.84626" lon="-0.38867">
        <ele>1333.966553</ele>
        <time>2014-02-17T11:20:11Z</time>
      </trkpt>
      <trkpt lat="42.84649" lon="-0.38867">
        <ele>1334.927979</ele>
        <time>2014-02-17T11:20:29Z</time>
      </trkpt>
      <trkpt lat="42.84656" lon="-0.38868">
        <ele>1334.927979</ele>
        <time>2014-02-17T11:20:39Z</time>
      </trkpt>
      <trkpt lat="42.84669" lon="-0.38869">
        <ele>1333.005127</ele>
        <time>2014-02-17T11:20:59Z</time>
      </trkpt>
      <trkpt lat="42.84685" lon="-0.38864">
        <ele>1331.082764</ele>
        <time>2014-02-17T11:21:15Z</time>
      </trkpt>
      <trkpt lat="42.84693" lon="-0.38864">
        <ele>1330.121338</ele>
        <time>2014-02-17T11:21:27Z</time>
      </trkpt>
      <trkpt lat="42.84705" lon="-0.38863">
        <ele>1330.602051</ele>
        <time>2014-02-17T11:21:43Z</time>
      </trkpt>
      <trkpt lat="42.84719" lon="-0.38865">
        <ele>1330.602051</ele>
        <time>2014-02-17T11:21:59Z</time>
      </trkpt>
      <trkpt lat="42.84732" lon="-0.38864">
        <ele>1329.159912</ele>
        <time>2014-02-17T11:22:16Z</time>
      </trkpt>
      <trkpt lat="42.84741" lon="-0.38864">
        <ele>1329.159912</ele>
        <time>2014-02-17T11:22:35Z</time>
      </trkpt>
      <trkpt lat="42.84751" lon="-0.38867">
        <ele>1329.640625</ele>
        <time>2014-02-17T11:23:09Z</time>
      </trkpt>
      <trkpt lat="42.84761" lon="-0.38867">
        <ele>1328.679443</ele>
        <time>2014-02-17T11:23:24Z</time>
      </trkpt>
      <trkpt lat="42.84771" lon="-0.38865">
        <ele>1327.237549</ele>
        <time>2014-02-17T11:23:40Z</time>
      </trkpt>
      <trkpt lat="42.84771" lon="-0.38863">
        <ele>1327.237549</ele>
        <time>2014-02-17T11:24:01Z</time>
      </trkpt>
      <trkpt lat="42.84771" lon="-0.38862">
        <ele>1326.756836</ele>
        <time>2014-02-17T11:24:14Z</time>
      </trkpt>
      <trkpt lat="42.84768" lon="-0.38862">
        <ele>1326.756836</ele>
        <time>2014-02-17T11:24:38Z</time>
      </trkpt>
      <trkpt lat="42.8477" lon="-0.38862">
        <ele>1327.718018</ele>
        <time>2014-02-17T11:24:51Z</time>
      </trkpt>
      <trkpt lat="42.84771" lon="-0.38861">
        <ele>1327.718018</ele>
        <time>2014-02-17T11:25:02Z</time>
      </trkpt>
      <trkpt lat="42.84772" lon="-0.38861">
        <ele>1325.79541</ele>
        <time>2014-02-17T11:25:07Z</time>
      </trkpt>
      <trkpt lat="42.8477" lon="-0.38864">
        <ele>1326.276123</ele>
        <time>2014-02-17T11:25:26Z</time>
      </trkpt>
      <trkpt lat="42.84768" lon="-0.38856">
        <ele>1326.276123</ele>
        <time>2014-02-17T11:26:02Z</time>
      </trkpt>
      <trkpt lat="42.84765" lon="-0.38866">
        <ele>1326.756836</ele>
        <time>2014-02-17T11:26:27Z</time>
      </trkpt>
      <trkpt lat="42.84771" lon="-0.3886">
        <ele>1326.276123</ele>
        <time>2014-02-17T11:26:43Z</time>
      </trkpt>
      <trkpt lat="42.8477" lon="-0.38866">
        <ele>1324.834229</ele>
        <time>2014-02-17T11:29:21Z</time>
      </trkpt>
      <trkpt lat="42.84771" lon="-0.38864">
        <ele>1325.314697</ele>
        <time>2014-02-17T11:29:38Z</time>
      </trkpt>
      <trkpt lat="42.84773" lon="-0.38858">
        <ele>1328.19873</ele>
        <time>2014-02-17T11:41:33Z</time>
      </trkpt>
      <trkpt lat="42.84773" lon="-0.38859">
        <ele>1324.834229</ele>
        <time>2014-02-17T11:42:58Z</time>
      </trkpt>
      <trkpt lat="42.84774" lon="-0.38861">
        <ele>1328.19873</ele>
        <time>2014-02-17T11:45:18Z</time>
      </trkpt>
      <trkpt lat="42.84774" lon="-0.38861">
        <ele>1328.19873</ele>
        <time>2014-02-17T11:45:19Z</time>
      </trkpt>
      <trkpt lat="42.84771" lon="-0.38866">
        <ele>1328.679443</ele>
        <time>2014-02-17T12:01:37Z</time>
      </trkpt>
      <trkpt lat="42.84766" lon="-0.3887">
        <ele>1330.602051</ele>
        <time>2014-02-17T12:07:31Z</time>
      </trkpt>
      <trkpt lat="42.84764" lon="-0.38862">
        <ele>1330.602051</ele>
        <time>2014-02-17T12:09:32Z</time>
      </trkpt>
      <trkpt lat="42.84765" lon="-0.38861">
        <ele>1330.602051</ele>
        <time>2014-02-17T12:10:47Z</time>
      </trkpt>
      <trkpt lat="42.84762" lon="-0.38864">
        <ele>1332.043945</ele>
        <time>2014-02-17T12:11:46Z</time>
      </trkpt>
      <trkpt lat="42.84764" lon="-0.38865">
        <ele>1331.563232</ele>
        <time>2014-02-17T12:12:12Z</time>
      </trkpt>
      <trkpt lat="42.8477" lon="-0.38863">
        <ele>1330.602051</ele>
        <time>2014-02-17T12:13:38Z</time>
      </trkpt>
      <trkpt lat="42.84765" lon="-0.38865">
        <ele>1331.082764</ele>
        <time>2014-02-17T12:16:24Z</time>
      </trkpt>
      <trkpt lat="42.84764" lon="-0.38865">
        <ele>1331.563232</ele>
        <time>2014-02-17T12:16:40Z</time>
      </trkpt>
      <trkpt lat="42.84766" lon="-0.38868">
        <ele>1333.005127</ele>
        <time>2014-02-17T12:18:49Z</time>
      </trkpt>
      <trkpt lat="42.84765" lon="-0.38863">
        <ele>1332.524658</ele>
        <time>2014-02-17T12:19:18Z</time>
      </trkpt>
      <trkpt lat="42.84766" lon="-0.38864">
        <ele>1333.005127</ele>
        <time>2014-02-17T12:19:59Z</time>
      </trkpt>
      <trkpt lat="42.84769" lon="-0.38861">
        <ele>1332.043945</ele>
        <time>2014-02-17T12:21:08Z</time>
      </trkpt>
      <trkpt lat="42.84774" lon="-0.38865">
        <ele>1331.563232</ele>
        <time>2014-02-17T12:21:44Z</time>
      </trkpt>
      <trkpt lat="42.84781" lon="-0.38866">
        <ele>1331.563232</ele>
        <time>2014-02-17T12:21:59Z</time>
      </trkpt>
      <trkpt lat="42.84792" lon="-0.38872">
        <ele>1332.524658</ele>
        <time>2014-02-17T12:22:18Z</time>
      </trkpt>
      <trkpt lat="42.84805" lon="-0.3888">
        <ele>1332.524658</ele>
        <time>2014-02-17T12:22:37Z</time>
      </trkpt>
      <trkpt lat="42.84812" lon="-0.3889">
        <ele>1333.966553</ele>
        <time>2014-02-17T12:22:56Z</time>
      </trkpt>
      <trkpt lat="42.84812" lon="-0.38903">
        <ele>1335.88916</ele>
        <time>2014-02-17T12:23:11Z</time>
      </trkpt>
      <trkpt lat="42.84818" lon="-0.38919">
        <ele>1336.850342</ele>
        <time>2014-02-17T12:23:31Z</time>
      </trkpt>
      <trkpt lat="42.84821" lon="-0.38921">
        <ele>1335.408447</ele>
        <time>2014-02-17T12:23:35Z</time>
      </trkpt>
      <trkpt lat="42.8484" lon="-0.38934">
        <ele>1335.88916</ele>
        <time>2014-02-17T12:23:57Z</time>
      </trkpt>
      <trkpt lat="42.84859" lon="-0.38942">
        <ele>1335.88916</ele>
        <time>2014-02-17T12:24:16Z</time>
      </trkpt>
      <trkpt lat="42.84872" lon="-0.38943">
        <ele>1336.369873</ele>
        <time>2014-02-17T12:24:34Z</time>
      </trkpt>
      <trkpt lat="42.84872" lon="-0.38944">
        <ele>1336.850342</ele>
        <time>2014-02-17T12:25:00Z</time>
      </trkpt>
      <trkpt lat="42.8488" lon="-0.38945">
        <ele>1336.850342</ele>
        <time>2014-02-17T12:25:24Z</time>
      </trkpt>
      <trkpt lat="42.84891" lon="-0.38947">
        <ele>1336.850342</ele>
        <time>2014-02-17T12:25:40Z</time>
      </trkpt>
      <trkpt lat="42.84902" lon="-0.38949">
        <ele>1336.850342</ele>
        <time>2014-02-17T12:25:56Z</time>
      </trkpt>
      <trkpt lat="42.84918" lon="-0.38956">
        <ele>1335.408447</ele>
        <time>2014-02-17T12:26:14Z</time>
      </trkpt>
      <trkpt lat="42.84935" lon="-0.38961">
        <ele>1336.850342</ele>
        <time>2014-02-17T12:26:33Z</time>
      </trkpt>
      <trkpt lat="42.84949" lon="-0.38963">
        <ele>1336.369873</ele>
        <time>2014-02-17T12:26:50Z</time>
      </trkpt>
      <trkpt lat="42.84946" lon="-0.38962">
        <ele>1336.369873</ele>
        <time>2014-02-17T12:26:56Z</time>
      </trkpt>
      <trkpt lat="42.84932" lon="-0.3896">
        <ele>1335.408447</ele>
        <time>2014-02-17T12:27:09Z</time>
      </trkpt>
      <trkpt lat="42.84923" lon="-0.38956">
        <ele>1335.88916</ele>
        <time>2014-02-17T12:27:26Z</time>
      </trkpt>
      <trkpt lat="42.84923" lon="-0.38956">
        <ele>1335.408447</ele>
        <time>2014-02-17T12:27:46Z</time>
      </trkpt>
      <trkpt lat="42.84933" lon="-0.38959">
        <ele>1334.447266</ele>
        <time>2014-02-17T12:28:01Z</time>
      </trkpt>
      <trkpt lat="42.84948" lon="-0.38962">
        <ele>1335.88916</ele>
        <time>2014-02-17T12:28:20Z</time>
      </trkpt>
      <trkpt lat="42.84965" lon="-0.38967">
        <ele>1334.927979</ele>
        <time>2014-02-17T12:28:41Z</time>
      </trkpt>
      <trkpt lat="42.84972" lon="-0.38968">
        <ele>1334.447266</ele>
        <time>2014-02-17T12:28:49Z</time>
      </trkpt>
      <trkpt lat="42.84988" lon="-0.38971">
        <ele>1332.524658</ele>
        <time>2014-02-17T12:29:09Z</time>
      </trkpt>
      <trkpt lat="42.84989" lon="-0.38972">
        <ele>1332.524658</ele>
        <time>2014-02-17T12:29:10Z</time>
      </trkpt>
      <trkpt lat="42.8499" lon="-0.38973">
        <ele>1333.48584</ele>
        <time>2014-02-17T12:29:12Z</time>
      </trkpt>
      <trkpt lat="42.84999" lon="-0.38975">
        <ele>1333.48584</ele>
        <time>2014-02-17T12:29:22Z</time>
      </trkpt>
      <trkpt lat="42.85014" lon="-0.38978">
        <ele>1333.48584</ele>
        <time>2014-02-17T12:29:40Z</time>
      </trkpt>
      <trkpt lat="42.85033" lon="-0.3898">
        <ele>1332.524658</ele>
        <time>2014-02-17T12:30:00Z</time>
      </trkpt>
      <trkpt lat="42.85045" lon="-0.38983">
        <ele>1332.043945</ele>
        <time>2014-02-17T12:30:15Z</time>
      </trkpt>
      <trkpt lat="42.85062" lon="-0.38987">
        <ele>1331.563232</ele>
        <time>2014-02-17T12:30:33Z</time>
      </trkpt>
      <trkpt lat="42.85077" lon="-0.3899">
        <ele>1330.602051</ele>
        <time>2014-02-17T12:30:49Z</time>
      </trkpt>
      <trkpt lat="42.85095" lon="-0.38994">
        <ele>1330.121338</ele>
        <time>2014-02-17T12:31:07Z</time>
      </trkpt>
      <trkpt lat="42.85113" lon="-0.38996">
        <ele>1330.602051</ele>
        <time>2014-02-17T12:31:26Z</time>
      </trkpt>
      <trkpt lat="42.85121" lon="-0.38998">
        <ele>1329.640625</ele>
        <time>2014-02-17T12:31:34Z</time>
      </trkpt>
      <trkpt lat="42.85141" lon="-0.39006">
        <ele>1330.602051</ele>
        <time>2014-02-17T12:31:54Z</time>
      </trkpt>
      <trkpt lat="42.85162" lon="-0.39014">
        <ele>1327.237549</ele>
        <time>2014-02-17T12:32:15Z</time>
      </trkpt>
      <trkpt lat="42.85181" lon="-0.39022">
        <ele>1326.756836</ele>
        <time>2014-02-17T12:32:34Z</time>
      </trkpt>
      <trkpt lat="42.85201" lon="-0.3903">
        <ele>1325.314697</ele>
        <time>2014-02-17T12:32:55Z</time>
      </trkpt>
      <trkpt lat="42.85214" lon="-0.39034">
        <ele>1323.872559</ele>
        <time>2014-02-17T12:33:08Z</time>
      </trkpt>
      <trkpt lat="42.85234" lon="-0.39042">
        <ele>1320.98877</ele>
        <time>2014-02-17T12:33:29Z</time>
      </trkpt>
      <trkpt lat="42.85253" lon="-0.39047">
        <ele>1319.546875</ele>
        <time>2014-02-17T12:33:48Z</time>
      </trkpt>
      <trkpt lat="42.85272" lon="-0.39058">
        <ele>1316.662842</ele>
        <time>2014-02-17T12:34:09Z</time>
      </trkpt>
      <trkpt lat="42.85279" lon="-0.39079">
        <ele>1316.182129</ele>
        <time>2014-02-17T12:34:27Z</time>
      </trkpt>
      <trkpt lat="42.85295" lon="-0.39088">
        <ele>1317.143555</ele>
        <time>2014-02-17T12:34:45Z</time>
      </trkpt>
      <trkpt lat="42.85312" lon="-0.39088">
        <ele>1317.143555</ele>
        <time>2014-02-17T12:35:03Z</time>
      </trkpt>
      <trkpt lat="42.85325" lon="-0.39083">
        <ele>1316.662842</ele>
        <time>2014-02-17T12:35:17Z</time>
      </trkpt>
      <trkpt lat="42.85334" lon="-0.39091">
        <ele>1314.259521</ele>
        <time>2014-02-17T12:35:36Z</time>
      </trkpt>
      <trkpt lat="42.85346" lon="-0.39108">
        <ele>1314.740234</ele>
        <time>2014-02-17T12:35:55Z</time>
      </trkpt>
      <trkpt lat="42.85351" lon="-0.39113">
        <ele>1314.259521</ele>
        <time>2014-02-17T12:36:03Z</time>
      </trkpt>
      <trkpt lat="42.85363" lon="-0.39115">
        <ele>1314.740234</ele>
        <time>2014-02-17T12:36:19Z</time>
      </trkpt>
      <trkpt lat="42.85374" lon="-0.39111">
        <ele>1314.740234</ele>
        <time>2014-02-17T12:36:35Z</time>
      </trkpt>
      <trkpt lat="42.85386" lon="-0.39103">
        <ele>1313.778809</ele>
        <time>2014-02-17T12:36:53Z</time>
      </trkpt>
      <trkpt lat="42.85393" lon="-0.39097">
        <ele>1312.817627</ele>
        <time>2014-02-17T12:37:02Z</time>
      </trkpt>
      <trkpt lat="42.85402" lon="-0.39089">
        <ele>1313.778809</ele>
        <time>2014-02-17T12:37:17Z</time>
      </trkpt>
      <trkpt lat="42.85414" lon="-0.39081">
        <ele>1313.29834</ele>
        <time>2014-02-17T12:37:32Z</time>
      </trkpt>
      <trkpt lat="42.8543" lon="-0.39087">
        <ele>1312.817627</ele>
        <time>2014-02-17T12:37:53Z</time>
      </trkpt>
      <trkpt lat="42.85436" lon="-0.39086">
        <ele>1311.856445</ele>
        <time>2014-02-17T12:38:07Z</time>
      </trkpt>
      <trkpt lat="42.85448" lon="-0.39093">
        <ele>1309.453125</ele>
        <time>2014-02-17T12:38:24Z</time>
      </trkpt>
      <trkpt lat="42.85456" lon="-0.39095">
        <ele>1308.01123</ele>
        <time>2014-02-17T12:38:33Z</time>
      </trkpt>
      <trkpt lat="42.85464" lon="-0.3909">
        <ele>1307.530273</ele>
        <time>2014-02-17T12:38:45Z</time>
      </trkpt>
      <trkpt lat="42.85475" lon="-0.39084">
        <ele>1307.530273</ele>
        <time>2014-02-17T12:39:02Z</time>
      </trkpt>
      <trkpt lat="42.85483" lon="-0.39084">
        <ele>1308.491699</ele>
        <time>2014-02-17T12:39:10Z</time>
      </trkpt>
      <trkpt lat="42.85492" lon="-0.39085">
        <ele>1308.491699</ele>
        <time>2014-02-17T12:39:18Z</time>
      </trkpt>
      <trkpt lat="42.855" lon="-0.39081">
        <ele>1308.01123</ele>
        <time>2014-02-17T12:39:26Z</time>
      </trkpt>
      <trkpt lat="42.85511" lon="-0.39066">
        <ele>1307.049561</ele>
        <time>2014-02-17T12:39:40Z</time>
      </trkpt>
      <trkpt lat="42.85529" lon="-0.3906">
        <ele>1305.126953</ele>
        <time>2014-02-17T12:39:59Z</time>
      </trkpt>
      <trkpt lat="42.85552" lon="-0.39063">
        <ele>1303.204346</ele>
        <time>2014-02-17T12:40:21Z</time>
      </trkpt>
      <trkpt lat="42.8556" lon="-0.39064">
        <ele>1303.204346</ele>
        <time>2014-02-17T12:40:38Z</time>
      </trkpt>
      <trkpt lat="42.85572" lon="-0.39078">
        <ele>1303.685059</ele>
        <time>2014-02-17T12:40:55Z</time>
      </trkpt>
      <trkpt lat="42.85579" lon="-0.391">
        <ele>1304.64624</ele>
        <time>2014-02-17T12:41:13Z</time>
      </trkpt>
      <trkpt lat="42.85593" lon="-0.39122">
        <ele>1304.64624</ele>
        <time>2014-02-17T12:41:35Z</time>
      </trkpt>
      <trkpt lat="42.85611" lon="-0.39133">
        <ele>1305.126953</ele>
        <time>2014-02-17T12:41:56Z</time>
      </trkpt>
      <trkpt lat="42.85623" lon="-0.39141">
        <ele>1303.685059</ele>
        <time>2014-02-17T12:42:09Z</time>
      </trkpt>
      <trkpt lat="42.85635" lon="-0.39154">
        <ele>1302.24292</ele>
        <time>2014-02-17T12:42:29Z</time>
      </trkpt>
      <trkpt lat="42.85645" lon="-0.39166">
        <ele>1303.685059</ele>
        <time>2014-02-17T12:42:46Z</time>
      </trkpt>
      <trkpt lat="42.85653" lon="-0.39178">
        <ele>1304.64624</ele>
        <time>2014-02-17T12:43:06Z</time>
      </trkpt>
      <trkpt lat="42.85669" lon="-0.39182">
        <ele>1305.607666</ele>
        <time>2014-02-17T12:43:25Z</time>
      </trkpt>
      <trkpt lat="42.85686" lon="-0.39185">
        <ele>1304.64624</ele>
        <time>2014-02-17T12:43:44Z</time>
      </trkpt>
      <trkpt lat="42.85704" lon="-0.39184">
        <ele>1303.685059</ele>
        <time>2014-02-17T12:44:04Z</time>
      </trkpt>
      <trkpt lat="42.85727" lon="-0.3918">
        <ele>1302.723633</ele>
        <time>2014-02-17T12:44:29Z</time>
      </trkpt>
      <trkpt lat="42.85731" lon="-0.39181">
        <ele>1301.762451</ele>
        <time>2014-02-17T12:44:33Z</time>
      </trkpt>
      <trkpt lat="42.85751" lon="-0.39194">
        <ele>1301.281738</ele>
        <time>2014-02-17T12:44:58Z</time>
      </trkpt>
      <trkpt lat="42.85769" lon="-0.39188">
        <ele>1297.917236</ele>
        <time>2014-02-17T12:45:19Z</time>
      </trkpt>
      <trkpt lat="42.85787" lon="-0.3919">
        <ele>1297.436523</ele>
        <time>2014-02-17T12:45:38Z</time>
      </trkpt>
      <trkpt lat="42.85804" lon="-0.39193">
        <ele>1297.917236</ele>
        <time>2014-02-17T12:45:57Z</time>
      </trkpt>
      <trkpt lat="42.85821" lon="-0.39199">
        <ele>1295.033203</ele>
        <time>2014-02-17T12:46:17Z</time>
      </trkpt>
      <trkpt lat="42.85839" lon="-0.39207">
        <ele>1293.591309</ele>
        <time>2014-02-17T12:46:38Z</time>
      </trkpt>
      <trkpt lat="42.85843" lon="-0.39211">
        <ele>1292.630127</ele>
        <time>2014-02-17T12:46:45Z</time>
      </trkpt>
      <trkpt lat="42.85859" lon="-0.39226">
        <ele>1290.707031</ele>
        <time>2014-02-17T12:47:06Z</time>
      </trkpt>
      <trkpt lat="42.85871" lon="-0.3925">
        <ele>1290.226562</ele>
        <time>2014-02-17T12:47:27Z</time>
      </trkpt>
      <trkpt lat="42.8588" lon="-0.39271">
        <ele>1290.226562</ele>
        <time>2014-02-17T12:47:46Z</time>
      </trkpt>
      <trkpt lat="42.85886" lon="-0.39277">
        <ele>1291.187744</ele>
        <time>2014-02-17T12:47:56Z</time>
      </trkpt>
      <trkpt lat="42.85903" lon="-0.39284">
        <ele>1293.110596</ele>
        <time>2014-02-17T12:48:17Z</time>
      </trkpt>
      <trkpt lat="42.8592" lon="-0.39284">
        <ele>1293.591309</ele>
        <time>2014-02-17T12:48:36Z</time>
      </trkpt>
      <trkpt lat="42.85936" lon="-0.39286">
        <ele>1292.630127</ele>
        <time>2014-02-17T12:48:54Z</time>
      </trkpt>
      <trkpt lat="42.85941" lon="-0.39285">
        <ele>1292.630127</ele>
        <time>2014-02-17T12:49:00Z</time>
      </trkpt>
      <trkpt lat="42.85959" lon="-0.39276">
        <ele>1292.149414</ele>
        <time>2014-02-17T12:49:19Z</time>
      </trkpt>
      <trkpt lat="42.85969" lon="-0.39271">
        <ele>1292.149414</ele>
        <time>2014-02-17T12:49:32Z</time>
      </trkpt>
      <trkpt lat="42.85981" lon="-0.39267">
        <ele>1291.668457</ele>
        <time>2014-02-17T12:49:45Z</time>
      </trkpt>
      <trkpt lat="42.85994" lon="-0.39257">
        <ele>1291.668457</ele>
        <time>2014-02-17T12:50:00Z</time>
      </trkpt>
      <trkpt lat="42.86002" lon="-0.39246">
        <ele>1293.110596</ele>
        <time>2014-02-17T12:50:13Z</time>
      </trkpt>
      <trkpt lat="42.8601" lon="-0.39234">
        <ele>1291.187744</ele>
        <time>2014-02-17T12:50:25Z</time>
      </trkpt>
      <trkpt lat="42.86021" lon="-0.39227">
        <ele>1291.668457</ele>
        <time>2014-02-17T12:50:37Z</time>
      </trkpt>
      <trkpt lat="42.86035" lon="-0.39217">
        <ele>1289.74585</ele>
        <time>2014-02-17T12:50:53Z</time>
      </trkpt>
      <trkpt lat="42.86054" lon="-0.39212">
        <ele>1288.784668</ele>
        <time>2014-02-17T12:51:15Z</time>
      </trkpt>
      <trkpt lat="42.86057" lon="-0.39211">
        <ele>1288.303955</ele>
        <time>2014-02-17T12:51:27Z</time>
      </trkpt>
      <trkpt lat="42.86065" lon="-0.39208">
        <ele>1287.823242</ele>
        <time>2014-02-17T12:51:45Z</time>
      </trkpt>
      <trkpt lat="42.86073" lon="-0.39203">
        <ele>1287.823242</ele>
        <time>2014-02-17T12:51:58Z</time>
      </trkpt>
      <trkpt lat="42.86086" lon="-0.39196">
        <ele>1287.823242</ele>
        <time>2014-02-17T12:52:15Z</time>
      </trkpt>
      <trkpt lat="42.86097" lon="-0.39193">
        <ele>1286.861816</ele>
        <time>2014-02-17T12:52:30Z</time>
      </trkpt>
      <trkpt lat="42.8611" lon="-0.39194">
        <ele>1286.381348</ele>
        <time>2014-02-17T12:52:48Z</time>
      </trkpt>
      <trkpt lat="42.86123" lon="-0.39196">
        <ele>1285.419922</ele>
        <time>2014-02-17T12:53:04Z</time>
      </trkpt>
      <trkpt lat="42.86127" lon="-0.39198">
        <ele>1285.900635</ele>
        <time>2014-02-17T12:53:25Z</time>
      </trkpt>
      <trkpt lat="42.86134" lon="-0.39199">
        <ele>1285.419922</ele>
        <time>2014-02-17T12:53:36Z</time>
      </trkpt>
      <trkpt lat="42.86147" lon="-0.39205">
        <ele>1285.419922</ele>
        <time>2014-02-17T12:53:54Z</time>
      </trkpt>
      <trkpt lat="42.8616" lon="-0.39208">
        <ele>1283.978027</ele>
        <time>2014-02-17T12:54:10Z</time>
      </trkpt>
      <trkpt lat="42.86178" lon="-0.39213">
        <ele>1283.497314</ele>
        <time>2014-02-17T12:54:30Z</time>
      </trkpt>
      <trkpt lat="42.86183" lon="-0.39216">
        <ele>1283.016602</ele>
        <time>2014-02-17T12:54:36Z</time>
      </trkpt>
      <trkpt lat="42.86197" lon="-0.39224">
        <ele>1282.536133</ele>
        <time>2014-02-17T12:54:54Z</time>
      </trkpt>
      <trkpt lat="42.86213" lon="-0.39223">
        <ele>1281.094238</ele>
        <time>2014-02-17T12:55:13Z</time>
      </trkpt>
      <trkpt lat="42.8622" lon="-0.39225">
        <ele>1280.132812</ele>
        <time>2014-02-17T12:55:26Z</time>
      </trkpt>
      <trkpt lat="42.86236" lon="-0.39231">
        <ele>1280.613525</ele>
        <time>2014-02-17T12:55:41Z</time>
      </trkpt>
      <trkpt lat="42.8624" lon="-0.39232">
        <ele>1280.132812</ele>
        <time>2014-02-17T12:55:45Z</time>
      </trkpt>
      <trkpt lat="42.86253" lon="-0.39243">
        <ele>1278.210205</ele>
        <time>2014-02-17T12:56:01Z</time>
      </trkpt>
      <trkpt lat="42.86272" lon="-0.39248">
        <ele>1277.249023</ele>
        <time>2014-02-17T12:56:22Z</time>
      </trkpt>
      <trkpt lat="42.86275" lon="-0.39248">
        <ele>1277.249023</ele>
        <time>2014-02-17T12:56:26Z</time>
      </trkpt>
      <trkpt lat="42.86291" lon="-0.39245">
        <ele>1276.287598</ele>
        <time>2014-02-17T12:56:43Z</time>
      </trkpt>
      <trkpt lat="42.86302" lon="-0.3924">
        <ele>1275.806641</ele>
        <time>2014-02-17T12:56:59Z</time>
      </trkpt>
      <trkpt lat="42.86323" lon="-0.39232">
        <ele>1274.364746</ele>
        <time>2014-02-17T12:57:20Z</time>
      </trkpt>
      <trkpt lat="42.86324" lon="-0.39232">
        <ele>1274.364746</ele>
        <time>2014-02-17T12:57:21Z</time>
      </trkpt>
      <trkpt lat="42.86342" lon="-0.39236">
        <ele>1271.480713</ele>
        <time>2014-02-17T12:57:43Z</time>
      </trkpt>
      <trkpt lat="42.86342" lon="-0.39237">
        <ele>1271.000244</ele>
        <time>2014-02-17T12:58:08Z</time>
      </trkpt>
      <trkpt lat="42.8635" lon="-0.39235">
        <ele>1271.000244</ele>
        <time>2014-02-17T12:58:24Z</time>
      </trkpt>
      <trkpt lat="42.86355" lon="-0.39236">
        <ele>1271.000244</ele>
        <time>2014-02-17T12:58:37Z</time>
      </trkpt>
      <trkpt lat="42.86364" lon="-0.39259">
        <ele>1270.519531</ele>
        <time>2014-02-17T12:58:59Z</time>
      </trkpt>
      <trkpt lat="42.86373" lon="-0.3928">
        <ele>1268.116211</ele>
        <time>2014-02-17T12:59:20Z</time>
      </trkpt>
      <trkpt lat="42.86389" lon="-0.39296">
        <ele>1267.155029</ele>
        <time>2014-02-17T12:59:43Z</time>
      </trkpt>
      <trkpt lat="42.86405" lon="-0.393">
        <ele>1266.674316</ele>
        <time>2014-02-17T13:00:03Z</time>
      </trkpt>
      <trkpt lat="42.86407" lon="-0.39299">
        <ele>1267.155029</ele>
        <time>2014-02-17T13:00:23Z</time>
      </trkpt>
      <trkpt lat="42.86405" lon="-0.393">
        <ele>1266.674316</ele>
        <time>2014-02-17T13:00:41Z</time>
      </trkpt>
      <trkpt lat="42.86407" lon="-0.39298">
        <ele>1264.751709</ele>
        <time>2014-02-17T13:00:54Z</time>
      </trkpt>
      <trkpt lat="42.86403" lon="-0.39291">
        <ele>1267.155029</ele>
        <time>2014-02-17T13:01:57Z</time>
      </trkpt>
      <trkpt lat="42.86406" lon="-0.39297">
        <ele>1266.674316</ele>
        <time>2014-02-17T13:02:18Z</time>
      </trkpt>
      <trkpt lat="42.86405" lon="-0.39296">
        <ele>1266.674316</ele>
        <time>2014-02-17T13:02:28Z</time>
      </trkpt>
      <trkpt lat="42.86405" lon="-0.39299">
        <ele>1266.674316</ele>
        <time>2014-02-17T13:02:47Z</time>
      </trkpt>
      <trkpt lat="42.86406" lon="-0.39299">
        <ele>1266.674316</ele>
        <time>2014-02-17T13:02:59Z</time>
      </trkpt>
      <trkpt lat="42.86409" lon="-0.393">
        <ele>1266.193604</ele>
        <time>2014-02-17T13:03:11Z</time>
      </trkpt>
      <trkpt lat="42.86408" lon="-0.39297">
        <ele>1267.155029</ele>
        <time>2014-02-17T13:03:34Z</time>
      </trkpt>
      <trkpt lat="42.86407" lon="-0.39294">
        <ele>1266.193604</ele>
        <time>2014-02-17T13:03:56Z</time>
      </trkpt>
      <trkpt lat="42.86406" lon="-0.39295">
        <ele>1266.674316</ele>
        <time>2014-02-17T13:04:08Z</time>
      </trkpt>
      <trkpt lat="42.86405" lon="-0.39297">
        <ele>1266.674316</ele>
        <time>2014-02-17T13:04:23Z</time>
      </trkpt>
      <trkpt lat="42.86405" lon="-0.39299">
        <ele>1265.713135</ele>
        <time>2014-02-17T13:04:41Z</time>
      </trkpt>
      <trkpt lat="42.86403" lon="-0.39299">
        <ele>1265.713135</ele>
        <time>2014-02-17T13:04:58Z</time>
      </trkpt>
      <trkpt lat="42.86405" lon="-0.39298">
        <ele>1265.713135</ele>
        <time>2014-02-17T13:05:12Z</time>
      </trkpt>
      <trkpt lat="42.86405" lon="-0.39296">
        <ele>1264.751709</ele>
        <time>2014-02-17T13:05:29Z</time>
      </trkpt>
      <trkpt lat="42.86405" lon="-0.39296">
        <ele>1265.232422</ele>
        <time>2014-02-17T13:05:54Z</time>
      </trkpt>
      <trkpt lat="42.86405" lon="-0.393">
        <ele>1265.232422</ele>
        <time>2014-02-17T13:06:08Z</time>
      </trkpt>
    </trkseg>
  </trk>
</gpx>